Airfield :







YOU CAN JOIN US ON...

 
LOGIN :

Register | Disclaimer

   EN    FR    IT 

 









Legend :    VFR   Marginal VFR   IFR   Intensive IFR   Very Intensive IFR
Visi :
Ceiling :
>= 8 km
>= 3000ft
5 to 8 km
1000 to 3000 ft
1500m to 5 km
500 to 1000 ft
800 to 1500m
200 to 500 ft
< 800m
< 200 ft
Symbols :   Thunderstorms  Fog  Heavy snow  Heavy precipitations  Wind > 20 kt







- Airport Elevation : 328 ft


KGFL - Floyd Bennett Memorial

CURRENT METAR :
  • 150714Z AUTO 00000KT 1/4SM FG VV002 13/13 A3014 RMK AO2 T01280128

EXPIRED METARs :
  • 150700Z AUTO 00000KT 1/2SM FG VV002 13/12 A3014 RMK AO2 T01280122
  • 150653Z AUTO 00000KT 1SM BR VV002 13/13 A3014 RMK AO2 VIS 1/4V5 SLP207 T01330133
  • 150632Z AUTO 21005KT 3SM BR SCT001 15/14 A3014 RMK AO2 T01500144
  • 150553Z AUTO 19005KT 7SM FEW002 15/14 A3014 RMK AO2 SLP206 60000 T01500144 10183 20150 50000
  • 150539Z AUTO 18006KT 6SM BR FEW002 15/14 A3014 RMK AO2 T01500144
  • 150517Z AUTO 17004KT 7SM BKN002 16/15 A3014 RMK AO2 T01560150
  • 150453Z AUTO 16007KT 9SM OVC004 16/16 A3014 RMK AO2 SLP207 T01610156 401890144
  • 150430Z AUTO 16004KT 3SM BR OVC004 16/15 A3014 RMK AO2 T01560150

TAF KGFL
Valid from the 15 at 06:00 until the 16 at 06:00 UTC


150536Z 1506/1606 16007KT 2SM BR OVC004
TEMPO 1506/1510 6SM OVC009
FM151300 VRB03KT P6SM SCT030
FM151700 23007KT P6SM SCT200
FM152100 26006KT P6SM BKN040
No reported NOTAMs for that airfield.



MET'MAP, your aeronautical weather chart ! - Copyright ORBIFLY December 2007 - Disclaimer

ORBIFLY MET'MAP TEAM :

Programming & Development : Alexandra Zaïnal
Concept & Development : Baudouin d'Aumeries
Co-Development & Prog : Marc-Olivier Méhu
Technical & hardware support : Manuel Goepfert

Contact : metmap@orbifly.com




SOURCES & CREDITS :

   NOAA